Time;durP1;ratioP1;P1;durP2;ratioP2;P2;SDS_P1;SDS_P2;PMS_P1;PMS_P2;Temp;Humidity;BMP_temperature;BMP_pressure;BME280_temperature;BME280_humidity;BME280_pressure;Samples;Min_cycle;Max_cycle;Signal;HPM_P1;HPM_P2
2021/08/09 00:01:23;;;;;;;5.50;0.70;;;14.40;99.90;;;;;;5024874;28;20064;-83
2021/08/09 00:03:49;;;;;;;3.95;0.52;;;14.40;99.90;;;;;;5025691;28;20036;-85
2021/08/09 00:06:14;;;;;;;1.65;0.50;;;14.40;99.90;;;;;;5025777;28;20097;-85
2021/08/09 00:08:40;;;;;;;3.97;0.70;;;14.40;99.90;;;;;;5025690;28;20101;-86
2021/08/09 00:11:05;;;;;;;2.42;0.50;;;14.40;99.90;;;;;;5025616;28;20061;-86
2021/08/09 00:13:31;;;;;;;3.00;0.57;;;14.30;99.90;;;;;;5025734;28;20029;-86
2021/08/09 00:15:58;;;;;;;2.90;0.50;;;14.40;99.90;;;;;;5025420;28;20076;-85
2021/08/09 00:18:25;;;;;;;3.55;0.40;;;14.30;99.90;;;;;;5009044;28;20026;-86
2021/08/09 00:20:52;;;;;;;2.45;0.40;;;14.30;99.90;;;;;;5009230;28;20052;-86
2021/08/09 00:23:19;;;;;;;1.52;0.40;;;14.30;99.90;;;;;;5009092;28;20046;-86
2021/08/09 00:25:44;;;;;;;3.15;0.50;;;14.30;99.90;;;;;;5009135;28;20030;-86
2021/08/09 00:28:10;;;;;;;4.13;0.50;;;14.30;99.90;;;;;;5025137;28;20022;-84
2021/08/09 00:30:36;;;;;;;3.10;0.50;;;14.30;99.90;;;;;;5026742;28;20028;-85
2021/08/09 00:33:01;;;;;;;3.50;0.50;;;14.30;99.90;;;;;;5025539;28;20132;-85
2021/08/09 00:35:28;;;;;;;3.70;0.55;;;14.30;99.90;;;;;;5025423;28;20079;-86
2021/08/09 00:37:54;;;;;;;2.72;0.80;;;14.30;99.90;;;;;;5025104;28;20098;-86
2021/08/09 00:40:19;;;;;;;2.30;0.40;;;14.30;99.90;;;;;;5041763;28;20037;-86
2021/08/09 00:42:45;;;;;;;2.53;0.50;;;14.30;99.90;;;;;;5025302;28;20089;-86
2021/08/09 00:45:11;;;;;;;5.32;0.50;;;14.30;99.90;;;;;;5025110;28;20055;-85
2021/08/09 00:47:38;;;;;;;1.92;0.57;;;14.20;99.90;;;;;;5025027;28;20040;-86
2021/08/09 00:50:05;;;;;;;2.40;0.73;;;14.20;99.90;;;;;;5025035;28;20038;-85
2021/08/09 00:52:31;;;;;;;2.67;0.65;;;14.20;99.90;;;;;;5025321;28;20026;-86
2021/08/09 00:54:59;;;;;;;3.17;0.60;;;14.20;99.90;;;;;;5025219;28;20108;-87
2021/08/09 00:57:26;;;;;;;3.78;0.60;;;14.10;99.90;;;;;;5025189;28;20117;-87
2021/08/09 00:59:52;;;;;;;2.97;0.50;;;14.10;99.90;;;;;;5025246;28;20043;-86
2021/08/09 01:02:19;;;;;;;1.83;0.50;;;14.10;99.90;;;;;;5041821;28;20165;-86
2021/08/09 01:04:46;;;;;;;4.40;0.50;;;14.00;99.90;;;;;;5008719;28;20029;-86
2021/08/09 01:07:12;;;;;;;3.22;0.70;;;14.00;99.90;;;;;;5025443;28;20034;-86
2021/08/09 01:09:59;;;;;;;3.95;0.50;;;14.00;99.90;;;;;;5009111;28;20029;-86
2021/08/09 01:12:34;;;;;;;2.17;0.57;;;14.00;99.90;;;;;;5024829;28;20038;-85
2021/08/09 01:15:17;;;;;;;3.42;1.08;;;14.00;99.90;;;;;;5008511;28;20081;-85
2021/08/09 01:17:47;;;;;;;3.38;0.60;;;14.00;99.90;;;;;;5025107;28;20029;-86
2021/08/09 01:20:22;;;;;;;3.05;0.50;;;14.00;99.90;;;;;;5024805;28;20026;-86
2021/08/09 01:23:08;;;;;;;3.15;0.70;;;14.00;99.90;;;;;;5008798;28;20033;-86
2021/08/09 01:26:00;;;;;;;2.00;0.90;;;13.90;99.90;;;;;;5024816;28;20040;-87
2021/08/09 01:28:31;;;;;;;4.15;1.02;;;13.90;99.90;;;;;;5004008;28;20034;-86
2021/08/09 01:31:00;;;;;;;7.25;1.42;;;13.90;99.90;;;;;;5008607;28;20033;-86
2021/08/09 01:33:30;;;;;;;4.20;1.27;;;13.90;99.90;;;;;;5025020;28;20478;-86
2021/08/09 01:36:00;;;;;;;3.50;1.13;;;13.90;99.90;;;;;;5024851;28;20050;-86
2021/08/09 01:38:27;;;;;;;6.20;0.90;;;13.80;99.90;;;;;;5024744;28;20041;-87
2021/08/09 01:40:57;;;;;;;3.30;0.80;;;13.80;99.90;;;;;;5024475;28;20030;-86
2021/08/09 01:43:29;;;;;;;2.58;0.60;;;13.80;99.90;;;;;;5024944;28;20029;-87
2021/08/09 01:46:15;;;;;;;3.00;0.68;;;13.80;99.90;;;;;;5024374;28;20037;-84
2021/08/09 01:48:43;;;;;;;2.85;0.50;;;13.80;99.90;;;;;;4948827;29;20043;-86
2021/08/09 01:51:11;;;;;;;4.03;0.60;;;13.80;99.90;;;;;;4949182;29;20058;-86
2021/08/09 01:53:37;;;;;;;7.20;0.70;;;13.70;99.90;;;;;;4965055;29;20035;-86
2021/08/09 01:56:04;;;;;;;4.47;0.75;;;13.70;99.90;;;;;;4948953;29;20038;-85
2021/08/09 01:58:30;;;;;;;4.00;0.50;;;13.70;99.90;;;;;;4948848;29;20038;-86
2021/08/09 02:00:55;;;;;;;3.80;0.65;;;13.70;99.90;;;;;;4948691;29;20529;-86
2021/08/09 02:03:22;;;;;;;2.83;0.77;;;13.60;99.90;;;;;;4965090;29;20047;-85
2021/08/09 02:05:47;;;;;;;3.95;0.60;;;13.70;99.90;;;;;;4948939;29;20040;-84
2021/08/09 02:08:14;;;;;;;4.20;0.70;;;13.70;99.90;;;;;;4948881;29;20088;-85
2021/08/09 02:10:41;;;;;;;2.47;0.52;;;13.70;99.90;;;;;;4964784;29;20066;-86
2021/08/09 02:13:35;;;;;;;2.72;0.82;;;13.70;99.90;;;;;;4949366;29;20066;-85
2021/08/09 02:16:07;;;;;;;2.30;0.50;;;13.60;99.90;;;;;;4952765;28;20034;-85
2021/08/09 02:18:48;;;;;;;1.80;0.50;;;13.60;99.90;;;;;;4968699;28;20566;-87
2021/08/09 02:21:18;;;;;;;3.55;0.57;;;13.60;99.90;;;;;;4967992;28;20111;-86
2021/08/09 02:23:52;;;;;;;3.80;0.60;;;13.60;99.90;;;;;;4952009;28;20027;-86
2021/08/09 02:26:34;;;;;;;2.05;0.60;;;13.60;99.90;;;;;;4995210;28;20041;-86
2021/08/09 02:29:06;;;;;;;3.55;1.10;;;13.60;99.90;;;;;;5011370;28;20064;-85
2021/08/09 02:31:37;;;;;;;5.20;0.70;;;13.60;99.90;;;;;;5027690;28;20072;-86
2021/08/09 02:34:05;;;;;;;6.07;1.23;;;13.60;99.90;;;;;;5027671;28;20053;-85
2021/08/09 02:36:32;;;;;;;6.35;0.88;;;13.60;99.90;;;;;;5027440;28;20025;-86
2021/08/09 02:38:59;;;;;;;3.90;0.60;;;13.70;99.90;;;;;;5027523;28;20128;-85
2021/08/09 02:41:26;;;;;;;4.43;0.80;;;13.70;99.90;;;;;;5027275;28;20038;-86
2021/08/09 02:43:52;;;;;;;3.65;0.60;;;13.60;99.90;;;;;;5027424;28;20056;-86
2021/08/09 02:49:16;;;;;;;4.15;0.70;;;13.60;99.90;;;;;;5007595;28;20053;-86
2021/08/09 02:51:43;;;;;;;2.17;0.50;;;13.70;99.90;;;;;;4991825;28;20018;-86
2021/08/09 02:54:10;;;;;;;2.70;0.80;;;13.70;99.90;;;;;;4991902;28;20034;-86
2021/08/09 02:56:36;;;;;;;5.97;0.90;;;13.70;99.90;;;;;;4975556;28;20102;-84
2021/08/09 02:59:02;;;;;;;4.07;0.50;;;13.60;99.90;;;;;;4991560;28;20121;-86
2021/08/09 03:01:31;;;;;;;3.25;0.65;;;13.70;99.90;;;;;;4991448;28;20482;-86
2021/08/09 03:03:59;;;;;;;4.97;0.60;;;13.70;99.90;;;;;;4991518;28;20034;-85
2021/08/09 03:06:26;;;;;;;4.25;0.70;;;13.70;99.90;;;;;;4991292;28;20080;-84
2021/08/09 03:08:54;;;;;;;2.53;0.50;;;13.70;99.90;;;;;;4991276;28;20109;-84
2021/08/09 03:11:20;;;;;;;6.28;0.65;;;13.60;99.90;;;;;;4975217;28;20076;-86
2021/08/09 03:13:48;;;;;;;4.55;0.70;;;13.60;99.90;;;;;;4991497;28;20509;-85
2021/08/09 03:16:16;;;;;;;4.10;0.70;;;13.60;99.90;;;;;;4990890;28;20049;-86
2021/08/09 03:18:42;;;;;;;4.38;0.80;;;13.60;99.90;;;;;;4991303;28;20517;-85
2021/08/09 03:21:08;;;;;;;2.80;0.63;;;13.60;99.90;;;;;;4990782;28;20038;-85
2021/08/09 03:23:35;;;;;;;5.60;0.73;;;13.60;99.90;;;;;;4991102;28;20113;-86
2021/08/09 03:26:01;;;;;;;2.20;0.45;;;13.60;99.90;;;;;;4990689;28;20117;-84
2021/08/09 03:28:26;;;;;;;5.15;0.60;;;13.60;99.90;;;;;;4990595;28;20030;-85
2021/08/09 03:30:52;;;;;;;2.45;0.50;;;13.60;99.90;;;;;;4990686;28;20022;-85
2021/08/09 03:33:18;;;;;;;2.60;0.60;;;13.60;99.90;;;;;;4990571;28;20470;-86
2021/08/09 03:35:43;;;;;;;5.90;0.68;;;13.60;99.90;;;;;;4990625;28;20034;-86
2021/08/09 03:38:09;;;;;;;2.08;0.60;;;13.60;99.90;;;;;;4990444;28;20030;-85
2021/08/09 03:40:35;;;;;;;5.32;0.60;;;13.60;99.90;;;;;;4990443;28;20050;-85
2021/08/09 03:43:05;;;;;;;4.05;0.60;;;13.50;99.90;;;;;;4990509;28;20034;-84
2021/08/09 03:49:19;;;;;;;4.25;0.85;;;13.50;99.90;;;;;;5006136;28;20074;-86
2021/08/09 03:51:44;;;;;;;3.67;0.95;;;13.50;99.90;;;;;;4990297;28;20030;-85
2021/08/09 03:54:10;;;;;;;4.78;0.80;;;13.50;99.90;;;;;;4990359;28;20026;-86
2021/08/09 03:56:37;;;;;;;1.75;0.73;;;13.50;99.90;;;;;;4990240;28;20412;-85
2021/08/09 03:59:06;;;;;;;7.38;1.55;;;13.50;99.90;;;;;;4990181;28;20040;-86
2021/08/09 04:01:38;;;;;;;5.57;0.73;;;13.60;99.90;;;;;;4990038;28;20038;-85
2021/08/09 04:04:08;;;;;;;3.15;0.85;;;13.50;99.90;;;;;;4990203;28;20018;-86
2021/08/09 04:06:34;;;;;;;4.13;1.13;;;13.60;99.90;;;;;;4989965;28;20038;-86
2021/08/09 04:09:00;;;;;;;3.50;0.77;;;13.60;99.90;;;;;;4990104;28;20026;-85
2021/08/09 04:11:25;;;;;;;3.10;0.50;;;13.60;99.90;;;;;;4990095;28;20084;-85
2021/08/09 04:13:51;;;;;;;8.45;0.65;;;13.60;99.90;;;;;;4989937;28;20054;-85
2021/08/09 04:16:16;;;;;;;6.90;0.63;;;13.60;99.90;;;;;;4989631;28;20041;-86
2021/08/09 04:18:42;;;;;;;1.52;0.43;;;13.50;99.90;;;;;;4989664;28;20026;-86
2021/08/09 04:21:09;;;;;;;2.47;0.70;;;13.60;99.90;;;;;;4990073;28;20049;-85
2021/08/09 04:23:35;;;;;;;3.90;0.50;;;13.50;99.90;;;;;;4989793;28;20034;-85
2021/08/09 04:26:01;;;;;;;6.32;0.80;;;13.50;99.90;;;;;;4989851;28;20026;-85
2021/08/09 04:28:26;;;;;;;5.22;0.70;;;13.60;99.90;;;;;;4989554;28;20081;-86
2021/08/09 04:30:52;;;;;;;3.83;0.80;;;13.60;99.90;;;;;;4990964;28;20031;-85
2021/08/09 04:33:20;;;;;;;4.75;0.70;;;13.50;99.90;;;;;;4989720;28;20050;-85
2021/08/09 04:35:45;;;;;;;6.15;1.00;;;13.60;99.90;;;;;;4973698;28;20034;-85
2021/08/09 04:38:11;;;;;;;2.72;0.90;;;13.60;99.90;;;;;;4989258;28;20030;-86
2021/08/09 04:40:37;;;;;;;4.50;0.82;;;13.60;99.90;;;;;;4989276;28;20094;-85
2021/08/09 04:43:02;;;;;;;2.40;0.70;;;13.50;99.90;;;;;;4988845;28;20264;-86
2021/08/09 04:45:29;;;;;;;3.40;0.70;;;13.60;99.90;;;;;;4988727;28;20064;-85
2021/08/09 04:47:55;;;;;;;4.18;0.63;;;13.60;99.90;;;;;;4971786;28;20041;-85
2021/08/09 04:50:21;;;;;;;3.75;0.70;;;13.60;99.90;;;;;;4988897;28;20082;-86
2021/08/09 04:52:46;;;;;;;3.25;0.68;;;13.60;99.90;;;;;;4988688;28;20106;-85
2021/08/09 04:55:18;;;;;;;3.90;0.70;;;13.70;99.90;;;;;;4989602;28;20077;-87
2021/08/09 04:57:44;;;;;;;6.45;0.80;;;13.70;99.90;;;;;;4988414;28;20034;-86
2021/08/09 05:00:11;;;;;;;5.18;0.73;;;13.80;99.90;;;;;;4988587;28;20032;-85
2021/08/09 05:02:39;;;;;;;4.70;0.63;;;13.80;99.90;;;;;;4988527;28;20302;-86
2021/08/09 05:05:07;;;;;;;4.60;0.73;;;13.80;99.90;;;;;;4988845;28;20037;-86
2021/08/09 05:07:33;;;;;;;3.97;0.70;;;13.80;99.90;;;;;;4988603;28;20281;-89
2021/08/09 05:10:02;;;;;;;4.57;0.52;;;13.90;99.90;;;;;;4988734;28;20058;-89
2021/08/09 05:12:29;;;;;;;7.13;1.38;;;13.90;99.90;;;;;;4988578;28;20057;-89
2021/08/09 05:14:58;;;;;;;5.93;0.90;;;14.00;99.90;;;;;;4988816;28;20027;-89
2021/08/09 05:17:23;;;;;;;4.20;0.60;;;14.00;99.90;;;;;;4973099;28;20119;-90
2021/08/09 05:19:49;;;;;;;4.72;0.60;;;14.00;99.90;;;;;;4953020;28;20066;-88
2021/08/09 05:22:14;;;;;;;6.65;1.00;;;14.00;99.90;;;;;;4969412;28;20049;-90
2021/08/09 05:24:41;;;;;;;4.30;0.70;;;14.10;99.90;;;;;;4969066;28;20082;-90
2021/08/09 05:27:06;;;;;;;3.72;0.80;;;14.10;99.90;;;;;;4969165;28;20431;-88
2021/08/09 05:29:32;;;;;;;3.72;0.60;;;14.10;99.90;;;;;;4982961;28;20032;-90
2021/08/09 05:31:59;;;;;;;2.92;0.90;;;14.10;99.90;;;;;;4988543;28;20037;-90
2021/08/09 05:34:25;;;;;;;4.13;0.80;;;14.20;99.90;;;;;;4985823;28;20089;-90
2021/08/09 05:36:51;;;;;;;6.20;0.70;;;14.20;99.90;;;;;;5004464;28;20036;-90
2021/08/09 05:39:17;;;;;;;6.07;0.98;;;14.20;99.90;;;;;;5004412;28;20538;-90
2021/08/09 05:41:43;;;;;;;5.13;0.73;;;14.30;99.90;;;;;;5004211;28;20042;-89
2021/08/09 05:44:09;;;;;;;4.85;0.80;;;14.30;99.90;;;;;;5004331;28;20090;-89
2021/08/09 05:46:38;;;;;;;2.85;0.50;;;14.40;99.90;;;;;;5017707;22;20030;-88
2021/08/09 05:49:04;;;;;;;4.03;0.77;;;14.40;99.90;;;;;;5047512;28;20068;-91
2021/08/09 05:51:39;;;;;;;3.50;0.70;;;14.50;99.90;;;;;;5031136;28;20037;-86
2021/08/09 05:54:08;;;;;;;3.63;0.50;;;14.60;99.90;;;;;;5036717;28;20033;-88
2021/08/09 05:56:35;;;;;;;2.35;0.80;;;14.60;99.90;;;;;;5027186;28;20049;-88
2021/08/09 05:59:02;;;;;;;3.13;0.60;;;14.80;99.90;;;;;;5027028;28;20017;-88
2021/08/09 06:01:28;;;;;;;3.88;1.05;;;14.90;99.90;;;;;;5047658;28;20072;-87
2021/08/09 06:03:54;;;;;;;3.53;0.55;;;15.00;99.90;;;;;;5030521;28;20481;-86
2021/08/09 06:06:20;;;;;;;5.72;0.70;;;15.00;99.90;;;;;;5031033;28;20053;-88
2021/08/09 06:08:51;;;;;;;3.97;0.60;;;15.20;99.90;;;;;;5031247;28;20029;-89
2021/08/09 06:11:18;;;;;;;3.58;0.60;;;15.20;99.90;;;;;;5014725;28;20068;-88
2021/08/09 06:13:44;;;;;;;4.05;0.60;;;15.30;99.90;;;;;;5014620;28;20021;-87
2021/08/09 06:16:10;;;;;;;5.13;0.60;;;15.40;99.90;;;;;;5035986;28;20071;-87
2021/08/09 06:18:38;;;;;;;5.75;0.77;;;15.40;99.90;;;;;;5050737;28;20090;-87
2021/08/09 06:21:05;;;;;;;1.75;0.60;;;15.40;99.90;;;;;;5034017;28;20152;-87
2021/08/09 06:23:32;;;;;;;1.92;0.50;;;15.40;99.90;;;;;;5033955;28;20150;-87
2021/08/09 06:25:58;;;;;;;2.65;0.50;;;15.50;99.90;;;;;;5033776;28;20029;-87
2021/08/09 06:28:26;;;;;;;5.50;0.60;;;15.40;99.90;;;;;;5033912;28;20025;-87
2021/08/09 06:30:55;;;;;;;4.30;0.80;;;15.40;99.90;;;;;;5033920;28;20033;-88
2021/08/09 06:33:20;;;;;;;3.75;0.60;;;15.50;99.90;;;;;;5012872;28;20037;-88
2021/08/09 06:35:49;;;;;;;2.63;0.60;;;15.40;99.90;;;;;;5010065;28;20041;-86
2021/08/09 06:38:17;;;;;;;2.70;0.57;;;15.40;99.90;;;;;;4994633;28;20030;-86
2021/08/09 06:40:45;;;;;;;3.33;0.70;;;15.30;99.90;;;;;;5010575;28;20190;-88
2021/08/09 06:43:12;;;;;;;6.13;0.55;;;15.30;99.90;;;;;;4994520;28;20033;-86
2021/08/09 06:45:44;;;;;;;4.22;0.50;;;15.40;99.90;;;;;;5011305;28;20036;-87
2021/08/09 06:48:12;;;;;;;4.72;1.05;;;15.40;99.90;;;;;;5011107;28;20111;-87
2021/08/09 06:50:40;;;;;;;3.90;1.27;;;15.40;99.90;;;;;;4995665;28;20061;-87
2021/08/09 06:53:06;;;;;;;4.70;0.60;;;15.40;99.90;;;;;;4994259;28;20033;-87
2021/08/09 06:55:33;;;;;;;3.40;0.60;;;15.40;99.90;;;;;;5010288;28;20056;-87
2021/08/09 06:57:59;;;;;;;3.80;0.60;;;15.40;99.90;;;;;;4994250;28;20033;-87
2021/08/09 07:00:25;;;;;;;3.40;0.70;;;15.70;99.90;;;;;;4993903;28;20228;-87
2021/08/09 07:02:50;;;;;;;2.35;0.60;;;16.10;99.90;;;;;;4993833;28;20072;-87
2021/08/09 07:05:16;;;;;;;1.85;0.60;;;16.50;99.90;;;;;;5010217;28;20029;-88
2021/08/09 07:07:50;;;;;;;2.28;0.50;;;16.60;99.90;;;;;;4994584;28;20069;-87
2021/08/09 07:10:17;;;;;;;2.85;0.57;;;16.70;99.90;;;;;;5009823;28;20053;-88
2021/08/09 07:12:43;;;;;;;4.22;0.70;;;16.70;99.90;;;;;;5026536;28;20056;-89
2021/08/09 07:15:09;;;;;;;3.30;0.85;;;16.90;99.90;;;;;;5010100;28;20093;-88
2021/08/09 07:17:42;;;;;;;3.60;1.08;;;17.00;99.90;;;;;;5009943;28;20026;-88
2021/08/09 07:20:11;;;;;;;2.45;0.70;;;17.10;99.90;;;;;;5013154;28;20026;-88
2021/08/09 07:22:43;;;;;;;2.50;0.50;;;17.40;99.90;;;;;;5013339;28;20095;-85
2021/08/09 07:25:11;;;;;;;4.50;0.60;;;17.70;99.90;;;;;;5013008;28;20030;-87
2021/08/09 07:27:38;;;;;;;3.10;0.63;;;17.70;99.90;;;;;;5013040;28;20099;-87
2021/08/09 07:30:05;;;;;;;4.10;0.80;;;17.80;99.90;;;;;;5012858;28;20116;-88
2021/08/09 07:32:31;;;;;;;2.10;0.60;;;17.80;99.90;;;;;;5012703;28;20059;-88
2021/08/09 07:34:57;;;;;;;3.33;0.77;;;17.90;99.90;;;;;;5012865;28;20042;-86
2021/08/09 07:37:23;;;;;;;4.28;0.55;;;18.10;99.90;;;;;;5012645;28;20029;-87
2021/08/09 07:39:49;;;;;;;2.22;0.50;;;18.20;99.90;;;;;;5012953;28;20037;-87
2021/08/09 07:42:15;;;;;;;1.98;0.57;;;18.30;99.90;;;;;;5012324;28;20038;-86
2021/08/09 07:44:40;;;;;;;2.15;0.60;;;18.50;99.90;;;;;;5012135;28;20025;-87
2021/08/09 07:47:06;;;;;;;2.85;0.52;;;18.50;99.90;;;;;;5012534;28;20034;-86
2021/08/09 07:49:32;;;;;;;4.43;0.80;;;18.70;99.90;;;;;;5012491;28;20029;-87
2021/08/09 07:51:58;;;;;;;3.53;0.50;;;18.60;99.90;;;;;;5012360;28;20037;-86
2021/08/09 07:54:25;;;;;;;3.65;0.90;;;18.50;99.90;;;;;;5012503;28;20422;-87
2021/08/09 07:56:52;;;;;;;3.60;1.08;;;18.60;99.90;;;;;;5012309;28;20076;-85
2021/08/09 07:59:19;;;;;;;2.58;0.50;;;18.70;99.90;;;;;;5028709;28;20033;-87
2021/08/09 08:01:45;;;;;;;3.92;0.70;;;18.90;99.90;;;;;;5028457;28;20041;-84
2021/08/09 08:04:11;;;;;;;3.35;0.60;;;18.90;99.90;;;;;;4980359;28;20037;-85
2021/08/09 08:06:37;;;;;;;5.65;0.60;;;19.30;99.90;;;;;;5007346;28;20037;-86
2021/08/09 08:09:03;;;;;;;3.53;1.02;;;19.70;99.90;;;;;;5011273;28;20339;-86
2021/08/09 08:11:29;;;;;;;2.45;0.65;;;19.80;99.90;;;;;;5010822;28;20029;-84
2021/08/09 08:13:55;;;;;;;1.90;0.52;;;19.50;99.90;;;;;;5010795;28;20064;-85
2021/08/09 08:16:21;;;;;;;2.17;0.73;;;19.70;99.90;;;;;;5007627;28;20069;-87
2021/08/09 08:18:46;;;;;;;2.55;0.60;;;19.70;99.90;;;;;;5023715;28;20084;-87
2021/08/09 08:21:14;;;;;;;1.80;0.40;;;19.80;99.90;;;;;;5023845;28;20073;-86
2021/08/09 08:23:40;;;;;;;2.65;0.40;;;19.80;99.90;;;;;;5023200;28;20030;-87
2021/08/09 08:26:06;;;;;;;2.88;0.40;;;20.00;99.90;;;;;;5023971;28;20057;-86
2021/08/09 08:28:31;;;;;;;3.10;0.32;;;20.00;99.90;;;;;;5010875;28;20124;-90
2021/08/09 08:31:00;;;;;;;2.35;0.50;;;20.30;99.90;;;;;;5011480;28;20057;-87
2021/08/09 08:33:25;;;;;;;4.18;0.73;;;20.30;99.90;;;;;;5010784;28;20041;-86
2021/08/09 08:35:51;;;;;;;2.65;0.40;;;20.40;99.90;;;;;;5010488;28;20129;-85
2021/08/09 08:38:19;;;;;;;2.78;0.35;;;20.00;99.90;;;;;;5027853;28;20108;-89
2021/08/09 08:40:50;;;;;;;2.40;0.45;;;20.30;99.90;;;;;;5011556;28;20045;-87
2021/08/09 08:43:27;;;;;;;1.58;0.50;;;20.20;99.90;;;;;;5011932;28;20025;-87
2021/08/09 08:46:15;;;;;;;1.73;0.32;;;20.40;99.90;;;;;;5011350;28;20034;-85
2021/08/09 08:48:46;;;;;;;2.50;0.40;;;20.50;99.90;;;;;;4971892;28;20126;-87
2021/08/09 08:51:12;;;;;;;2.50;0.40;;;20.50;99.90;;;;;;4987811;28;20281;-87
2021/08/09 08:53:37;;;;;;;1.42;0.40;;;20.60;99.90;;;;;;4987497;28;20074;-86
2021/08/09 08:56:05;;;;;;;1.25;0.40;;;20.80;99.90;;;;;;4987454;28;20145;-88
2021/08/09 08:58:31;;;;;;;1.77;0.30;;;20.80;99.90;;;;;;4987779;28;20101;-87
2021/08/09 09:00:57;;;;;;;3.90;0.40;;;21.10;99.90;;;;;;4971200;28;20050;-87
2021/08/09 09:03:25;;;;;;;1.38;0.30;;;20.80;99.90;;;;;;4971757;28;20034;-87
2021/08/09 09:06:10;;;;;;;2.55;0.40;;;21.00;99.90;;;;;;4987249;28;20531;-85
2021/08/09 09:08:46;;;;;;;4.07;0.40;;;20.60;99.90;;;;;;4987224;28;20034;-87
2021/08/09 09:11:11;;;;;;;2.70;0.30;;;20.60;99.90;;;;;;4987376;28;20073;-86
2021/08/09 09:13:57;;;;;;;1.77;0.30;;;21.10;99.90;;;;;;4971371;28;20034;-86
2021/08/09 09:16:24;;;;;;;1.50;0.30;;;21.10;99.90;;;;;;4984024;28;20042;-87
2021/08/09 09:18:54;;;;;;;1.75;0.40;;;21.40;99.90;;;;;;4967864;28;20094;-85
2021/08/09 09:21:37;;;;;;;1.25;0.30;;;21.10;99.90;;;;;;4968096;28;20042;-87
2021/08/09 09:24:12;;;;;;;1.20;0.38;;;21.00;99.90;;;;;;4968028;28;20038;-86
2021/08/09 09:26:40;;;;;;;1.55;0.40;;;21.10;99.90;;;;;;4983126;28;20053;-86
2021/08/09 09:29:11;;;;;;;1.73;0.30;;;20.80;99.90;;;;;;5015184;28;20052;-86
2021/08/09 09:31:39;;;;;;;1.95;0.38;;;20.80;99.90;;;;;;5007915;28;20048;-86
2021/08/09 09:34:14;;;;;;;3.17;0.40;;;21.00;99.90;;;;;;5009829;28;20058;-88
2021/08/09 09:36:49;;;;;;;2.63;0.32;;;21.10;99.90;;;;;;5011940;28;20049;-87
2021/08/09 09:39:35;;;;;;;2.15;0.30;;;21.30;99.90;;;;;;5011704;28;20033;-87
2021/08/09 09:42:04;;;;;;;2.25;0.30;;;21.50;99.90;;;;;;5011862;28;20109;-86
2021/08/09 09:44:31;;;;;;;2.50;0.30;;;20.70;99.90;;;;;;5011584;28;20465;-86
2021/08/09 09:47:20;;;;;;;1.08;0.32;;;21.00;99.90;;;;;;5013121;28;20044;-86
2021/08/09 09:49:50;;;;;;;3.83;0.32;;;21.00;99.90;;;;;;5023344;28;20053;-86
2021/08/09 09:52:34;;;;;;;2.92;0.30;;;20.90;99.90;;;;;;5014936;28;20033;-87
2021/08/09 09:55:05;;;;;;;1.38;0.28;;;21.80;99.90;;;;;;5014861;28;20056;-86
2021/08/09 09:57:31;;;;;;;2.65;0.80;;;22.00;99.90;;;;;;5014359;28;20037;-87
2021/08/09 09:59:58;;;;;;;1.55;0.30;;;21.90;99.90;;;;;;5014511;28;20029;-90
2021/08/09 10:02:25;;;;;;;1.75;0.30;;;22.40;99.90;;;;;;5031076;28;20076;-87
2021/08/09 10:04:51;;;;;;;3.13;0.30;;;21.60;99.90;;;;;;5030963;28;20037;-87
2021/08/09 10:07:20;;;;;;;0.90;0.30;;;21.60;99.90;;;;;;5030974;28;20044;-85
2021/08/09 10:09:48;;;;;;;0.68;0.20;;;22.20;99.90;;;;;;5030983;28;20033;-86
2021/08/09 10:12:17;;;;;;;1.75;0.30;;;22.50;99.90;;;;;;5014747;28;20029;-87
2021/08/09 10:14:42;;;;;;;2.22;0.30;;;22.00;99.90;;;;;;5014442;28;20037;-87
2021/08/09 10:17:08;;;;;;;2.90;0.20;;;22.10;99.90;;;;;;5010779;28;20033;-89
2021/08/09 10:19:34;;;;;;;1.77;0.20;;;22.30;99.90;;;;;;5010826;28;20502;-87
2021/08/09 10:22:00;;;;;;;1.80;0.22;;;21.90;99.90;;;;;;4994604;28;20064;-89
2021/08/09 10:24:42;;;;;;;5.20;0.95;;;21.90;99.90;;;;;;4994163;28;20513;-84
2021/08/09 10:27:09;;;;;;;3.67;0.40;;;21.00;99.90;;;;;;5029158;28;20029;-87
2021/08/09 10:30:00;;;;;;;3.75;0.40;;;21.40;99.90;;;;;;5010236;28;20030;-86
2021/08/09 10:32:26;;;;;;;1.85;0.20;;;21.70;99.90;;;;;;4991189;28;20065;-84
2021/08/09 10:34:52;;;;;;;1.45;0.22;;;21.90;99.90;;;;;;4994304;28;20099;-86
2021/08/09 10:37:23;;;;;;;1.60;0.35;;;21.60;99.90;;;;;;4993814;28;20026;-84
2021/08/09 10:39:59;;;;;;;1.42;0.20;;;21.90;99.90;;;;;;4993924;28;20500;-85
2021/08/09 10:42:36;;;;;;;3.40;0.45;;;22.40;99.90;;;;;;4993398;28;20049;-83
2021/08/09 10:45:08;;;;;;;1.88;0.20;;;22.00;99.90;;;;;;4993033;28;20034;-87
2021/08/09 10:47:46;;;;;;;1.38;0.20;;;22.40;99.90;;;;;;5003918;23;20061;-86
2021/08/09 10:50:24;;;;;;;1.65;0.22;;;22.70;99.90;;;;;;4990839;28;20052;-84
2021/08/09 10:52:50;;;;;;;1.08;0.30;;;23.30;99.90;;;;;;4990857;28;20153;-84
2021/08/09 10:55:31;;;;;;;0.85;0.22;;;23.40;99.90;;;;;;5008169;28;20023;-86
2021/08/09 10:58:01;;;;;;;1.10;0.25;;;23.10;99.90;;;;;;4990182;28;20038;-84
2021/08/09 11:00:38;;;;;;;1.55;0.20;;;23.20;99.90;;;;;;5006716;28;20038;-84
2021/08/09 11:03:12;;;;;;;3.20;0.40;;;22.90;99.90;;;;;;4990663;28;20038;-84
2021/08/09 11:05:40;;;;;;;1.10;0.20;;;22.20;99.90;;;;;;4990413;28;20041;-85
2021/08/09 11:08:15;;;;;;;2.33;0.30;;;21.90;99.90;;;;;;5006689;28;20799;-85
2021/08/09 11:10:58;;;;;;;2.05;0.20;;;21.80;99.90;;;;;;4990371;28;20038;-85
2021/08/09 11:13:48;;;;;;;2.97;0.85;;;22.00;99.90;;;;;;5006325;28;20479;-84
2021/08/09 11:16:30;;;;;;;0.75;0.20;;;22.30;99.90;;;;;;4989449;28;20057;-86
2021/08/09 11:18:57;;;;;;;1.55;0.28;;;22.80;99.90;;;;;;5005920;28;20487;-84
2021/08/09 11:21:24;;;;;;;0.40;0.10;;;23.30;99.90;;;;;;4989759;28;20049;-85
2021/08/09 11:23:53;;;;;;;;;;;23.00;99.90;;;;;;5005959;28;20033;-84
2021/08/09 11:26:24;;;;;;;1.17;0.20;;;22.60;99.90;;;;;;5005394;28;19910;-84
2021/08/09 11:29:01;;;;;;;2.47;0.30;;;22.70;99.90;;;;;;4989000;28;20030;-83
2021/08/09 11:31:28;;;;;;;4.22;0.20;;;21.80;99.90;;;;;;5006006;28;20058;-83
2021/08/09 11:33:54;;;;;;;2.13;0.20;;;21.30;99.90;;;;;;5005928;28;20030;-83
2021/08/09 11:36:20;;;;;;;5.70;0.30;;;21.60;99.90;;;;;;5005730;28;20509;-83
2021/08/09 11:38:50;;;;;;;5.25;0.30;;;21.10;99.90;;;;;;5005927;28;20053;-84
2021/08/09 11:41:21;;;;;;;2.30;0.20;;;21.10;99.90;;;;;;4989604;28;20050;-85
2021/08/09 11:43:49;;;;;;;1.65;0.20;;;20.80;99.90;;;;;;5005819;28;20030;-84
2021/08/09 11:46:16;;;;;;;1.63;0.38;;;20.50;99.90;;;;;;5005659;28;20497;-84
2021/08/09 11:49:20;;;;;;;1.50;0.25;;;20.60;99.90;;;;;;5007044;28;20118;-85
2021/08/09 11:51:46;;;;;;;1.20;0.20;;;20.60;99.90;;;;;;4968727;28;20058;-85
2021/08/09 11:54:12;;;;;;;2.88;0.30;;;20.60;99.90;;;;;;4971105;28;20479;-85
2021/08/09 11:56:39;;;;;;;2.97;0.30;;;20.50;99.90;;;;;;4969789;28;20045;-84
2021/08/09 11:59:12;;;;;;;2.90;0.30;;;20.00;99.90;;;;;;4986016;28;20031;-84
2021/08/09 12:01:39;;;;;;;1.05;0.20;;;20.10;99.90;;;;;;4985721;28;20493;-84
2021/08/09 12:04:13;;;;;;;2.58;0.40;;;19.90;99.90;;;;;;4986047;28;20025;-83
2021/08/09 12:06:46;;;;;;;2.00;0.30;;;19.90;99.90;;;;;;4985671;28;20031;-84
2021/08/09 12:09:13;;;;;;;2.55;0.20;;;20.00;99.90;;;;;;4969559;28;20030;-83
2021/08/09 12:11:39;;;;;;;1.98;0.20;;;20.50;99.90;;;;;;4985601;28;20039;-84
2021/08/09 12:14:14;;;;;;;1.00;0.10;;;20.50;99.90;;;;;;4985799;28;20035;-87
2021/08/09 12:16:50;;;;;;;0.95;0.20;;;20.50;99.90;;;;;;4986771;28;20034;-84
2021/08/09 12:19:19;;;;;;;2.35;0.30;;;19.80;99.90;;;;;;4969431;28;20034;-85
2021/08/09 12:21:46;;;;;;;2.22;0.28;;;18.90;99.90;;;;;;4969396;28;20043;-84
2021/08/09 12:24:21;;;;;;;1.13;0.20;;;19.00;99.90;;;;;;4969383;28;20039;-84
2021/08/09 12:26:48;;;;;;;2.17;0.30;;;19.50;99.90;;;;;;4969232;28;20065;-85
2021/08/09 12:29:16;;;;;;;1.67;0.22;;;20.40;99.90;;;;;;4985596;28;20471;-85
2021/08/09 12:31:45;;;;;;;0.77;0.20;;;20.90;99.90;;;;;;4969324;28;20093;-85
2021/08/09 12:34:13;;;;;;;2.28;0.20;;;21.20;99.90;;;;;;4969605;28;20081;-84
2021/08/09 12:36:39;;;;;;;1.45;0.25;;;21.00;99.90;;;;;;4969257;28;20122;-85
2021/08/09 12:39:08;;;;;;;2.03;0.30;;;20.80;99.90;;;;;;4969335;28;20428;-84
2021/08/09 12:41:34;;;;;;;1.13;0.20;;;20.50;99.90;;;;;;4985391;28;20050;-84
2021/08/09 12:44:03;;;;;;;2.78;0.20;;;19.80;99.90;;;;;;4969217;28;20058;-86
2021/08/09 12:46:31;;;;;;;2.90;0.30;;;19.80;99.90;;;;;;4979583;23;20030;-84
2021/08/09 12:48:58;;;;;;;1.67;0.25;;;20.10;99.90;;;;;;4987152;28;20058;-84
2021/08/09 12:51:24;;;;;;;4.03;0.20;;;20.20;99.90;;;;;;5005112;28;20106;-84
2021/08/09 12:53:50;;;;;;;1.35;0.20;;;20.30;99.90;;;;;;5005203;28;20022;-84
2021/08/09 12:56:16;;;;;;;0.73;0.20;;;20.50;99.90;;;;;;5004903;28;20035;-84
2021/08/09 12:58:42;;;;;;;2.53;0.55;;;20.40;99.90;;;;;;5004832;28;20113;-85
2021/08/09 13:01:08;;;;;;;1.48;0.20;;;20.70;99.90;;;;;;5004906;28;20513;-84
2021/08/09 13:03:34;;;;;;;0.70;0.20;;;20.60;99.90;;;;;;4988531;28;20030;-84